Sheyang, China
Current Conditions -  °F | °C
As of 6:00 AM on Monday 24 Nov 2014 (Local Time) from ZSQD Reporting Station
Clear Clear  
Wind Chill: 43°   Ceiling: Unl
Heat Index: 48°   Visibility: 6mi
Dew Point: 34°   Wind: 11mph
Humidity: 57%   Direction: 20°NNE
Pressure: 30.21"   Gusts: NA
Location:  33.77°N, 120.25°E
Report Text: ZSQD 232200Z 02005MPS 350V060 CAVOK 09/01 Q1023 NOSIG
Loading
Personal Weather Stations






























Interactive Weather Map New forecast layout! Learn more

10-Day Weather Forecast

Advertisements
Track Severe Weather on mobile